createdAt,value
2019-05-16T00:00:02.141Z,8.18
2019-05-16T00:02:30.552Z,9.18
2019-05-16T00:04:59.235Z,8.60
2019-05-16T00:07:28.314Z,8.85
2019-05-16T00:09:58.876Z,7.80
2019-05-16T00:12:29.174Z,8.23
2019-05-16T00:14:58.195Z,8.50
2019-05-16T00:17:28.428Z,8.05
2019-05-16T00:19:58.906Z,8.83
2019-05-16T00:22:28.777Z,8.95
2019-05-16T00:24:58.051Z,8.78
2019-05-16T00:27:28.073Z,10.03
2019-05-16T00:29:58.145Z,8.33
2019-05-16T00:32:28.224Z,9.45
2019-05-16T00:34:58.336Z,8.93
2019-05-16T00:37:28.660Z,8.20
2019-05-16T00:39:58.841Z,9.25
2019-05-16T00:42:28.661Z,9.18
2019-05-16T00:44:58.385Z,9.90
2019-05-16T00:47:28.394Z,10.82
2019-05-16T00:49:58.209Z,10.98
2019-05-16T00:52:28.862Z,9.98
2019-05-16T00:54:58.032Z,10.08
2019-05-16T00:57:28.207Z,10.45
2019-05-16T00:59:59.169Z,10.58
2019-05-16T01:02:28.852Z,11.08
2019-05-16T01:04:59.002Z,9.75
2019-05-16T01:07:27.818Z,10.88
2019-05-16T01:09:58.234Z,10.85
2019-05-16T01:12:28.350Z,11.57
2019-05-16T01:14:58.466Z,12.03
2019-05-16T01:17:28.379Z,10.65
2019-05-16T01:19:57.901Z,12.28
2019-05-16T01:22:28.819Z,11.00
2019-05-16T01:24:58.519Z,10.82
2019-05-16T01:27:27.783Z,10.75
2019-05-16T01:29:58.320Z,10.95
2019-05-16T01:32:31.860Z,12.30
2019-05-16T01:34:58.785Z,11.68
2019-05-16T01:37:27.888Z,11.88
2019-05-16T01:39:58.598Z,13.10
2019-05-16T01:42:27.862Z,12.60
2019-05-16T01:44:57.832Z,14.58
2019-05-16T01:47:28.638Z,12.60
2019-05-16T01:49:58.066Z,13.58
2019-05-16T01:52:28.904Z,12.13
2019-05-16T01:54:58.644Z,13.50
2019-05-16T01:57:28.205Z,13.30
2019-05-16T01:59:59.002Z,12.75
2019-05-16T02:02:28.917Z,14.00
2019-05-16T02:04:58.913Z,13.70
2019-05-16T02:07:28.363Z,13.22
2019-05-16T02:09:58.233Z,14.15
2019-05-16T02:12:27.775Z,13.30
2019-05-16T02:14:58.612Z,14.80
2019-05-16T02:17:28.978Z,14.05
2019-05-16T02:19:57.802Z,13.58
2019-05-16T02:22:28.398Z,14.95
2019-05-16T02:24:58.447Z,12.98
2019-05-16T02:27:28.545Z,14.47
2019-05-16T02:29:56.768Z,14.55
2019-05-16T02:32:25.293Z,15.40
2019-05-16T02:34:53.713Z,13.90
2019-05-16T02:37:29.340Z,13.68
2019-05-16T02:39:54.600Z,15.18
2019-05-16T02:42:22.761Z,14.73
2019-05-16T02:44:51.371Z,13.65
2019-05-16T02:47:21.028Z,14.70
2019-05-16T02:49:50.501Z,13.58
2019-05-16T02:52:21.761Z,13.25
2019-05-16T02:54:51.782Z,14.07
2019-05-16T02:57:21.222Z,13.62
2019-05-16T02:59:50.992Z,12.23
2019-05-16T03:02:20.552Z,14.03
2019-05-16T03:04:51.769Z,13.78
2019-05-16T03:07:36.462Z,14.15
2019-05-16T03:09:51.460Z,13.78
2019-05-16T03:12:22.180Z,14.47
2019-05-16T03:14:54.505Z,14.53
2019-05-16T03:17:25.914Z,14.40
2019-05-16T03:19:57.420Z,14.60
2019-05-16T03:22:31.259Z,15.55
2019-05-16T03:25:01.119Z,16.93
2019-05-16T03:27:30.581Z,16.45
2019-05-16T03:30:01.709Z,16.17
2019-05-16T03:32:33.940Z,17.95
2019-05-16T03:35:04.814Z,16.35
2019-05-16T03:37:30.876Z,16.60
2019-05-16T03:40:00.595Z,17.50
2019-05-16T03:42:31.070Z,17.37
2019-05-16T03:45:02.181Z,17.55
2019-05-16T03:47:31.280Z,18.37
2019-05-16T03:50:00.584Z,18.42
2019-05-16T03:52:31.040Z,18.70
2019-05-16T03:55:01.705Z,18.37
2019-05-16T03:57:30.699Z,19.25
2019-05-16T04:00:00.593Z,18.15
2019-05-16T04:02:30.921Z,20.02
2019-05-16T04:05:01.720Z,17.95
2019-05-16T04:07:31.807Z,17.98
2019-05-16T04:10:02.184Z,17.07
2019-05-16T04:12:30.912Z,16.50
2019-05-16T04:15:01.909Z,16.48
2019-05-16T04:17:31.677Z,16.67
2019-05-16T04:20:01.914Z,17.62
2019-05-16T04:22:31.823Z,17.95
2019-05-16T04:25:01.964Z,16.87
2019-05-16T04:27:30.865Z,17.70
2019-05-16T04:30:01.496Z,17.32
2019-05-16T04:32:31.458Z,16.82
2019-05-16T04:35:02.480Z,16.87
2019-05-16T04:37:31.447Z,16.85
2019-05-16T04:40:01.225Z,17.37
2019-05-16T04:42:31.089Z,16.60
2019-05-16T04:45:01.144Z,16.80
2019-05-16T04:47:31.661Z,16.80
2019-05-16T04:50:01.719Z,16.65
2019-05-16T04:52:30.706Z,15.53
2019-05-16T04:55:00.769Z,15.28
2019-05-16T04:57:31.265Z,15.53
2019-05-16T05:00:02.221Z,15.32
2019-05-16T05:02:30.947Z,14.93
2019-05-16T05:05:01.294Z,15.48
2019-05-16T05:07:31.363Z,15.05
2019-05-16T05:10:00.815Z,15.90
2019-05-16T05:12:31.493Z,14.93
2019-05-16T05:15:01.220Z,14.18
2019-05-16T05:17:30.618Z,14.98
2019-05-16T05:20:01.187Z,14.47
2019-05-16T05:22:30.438Z,13.48
2019-05-16T05:25:00.143Z,14.25
2019-05-16T05:27:30.312Z,13.58
2019-05-16T05:30:01.025Z,13.62
2019-05-16T05:32:30.595Z,14.80
2019-05-16T05:34:59.907Z,13.62
2019-05-16T05:37:29.834Z,12.55
2019-05-16T05:39:59.932Z,13.53
2019-05-16T05:42:30.584Z,16.17
2019-05-16T05:45:00.276Z,16.77
2019-05-16T05:47:30.782Z,15.45
2019-05-16T05:50:00.648Z,16.05
2019-05-16T05:52:30.291Z,17.17
2019-05-16T05:55:00.649Z,16.40
2019-05-16T05:57:29.994Z,17.23
2019-05-16T06:00:00.518Z,17.23
2019-05-16T06:02:30.928Z,16.95
2019-05-16T06:04:59.748Z,17.35
2019-05-16T06:07:30.035Z,16.73
2019-05-16T06:10:00.452Z,17.57
2019-05-16T06:12:30.274Z,16.82
2019-05-16T06:15:08.064Z,16.15
2019-05-16T06:17:30.694Z,15.72
2019-05-16T06:20:00.277Z,15.32
2019-05-16T06:22:29.864Z,15.45
2019-05-16T06:25:00.898Z,15.43
2019-05-16T06:27:30.238Z,15.95
2019-05-16T06:30:00.544Z,15.18
2019-05-16T06:32:30.394Z,15.68
2019-05-16T06:35:00.114Z,14.75
2019-05-16T06:37:30.971Z,13.75
2019-05-16T06:40:00.681Z,13.32
2019-05-16T06:42:29.937Z,13.53
2019-05-16T06:45:00.855Z,14.07
2019-05-16T06:47:30.498Z,14.70
2019-05-16T06:50:00.225Z,12.82
2019-05-16T06:52:30.117Z,12.30
2019-05-16T06:55:00.772Z,11.83
2019-05-16T06:57:30.194Z,13.22
2019-05-16T07:00:00.653Z,12.78
2019-05-16T07:02:33.582Z,12.88
2019-05-16T07:05:01.166Z,11.95
2019-05-16T07:07:30.798Z,12.60
2019-05-16T07:10:04.201Z,12.70
2019-05-16T07:12:33.706Z,11.75
2019-05-16T07:15:01.441Z,12.40
2019-05-16T07:17:30.668Z,11.57
2019-05-16T07:20:00.708Z,12.07
2019-05-16T07:22:31.235Z,11.97
2019-05-16T07:25:00.005Z,11.00
2019-05-16T07:27:30.666Z,10.63
2019-05-16T07:30:01.138Z,9.58
2019-05-16T07:52:35.480Z,9.98
2019-05-16T07:55:00.252Z,9.80
2019-05-16T07:57:30.609Z,8.53
2019-05-16T08:00:00.130Z,10.13
2019-05-16T08:02:31.100Z,9.93
2019-05-16T08:05:00.695Z,9.23
2019-05-16T08:07:33.232Z,8.80
2019-05-16T08:09:59.883Z,8.45
2019-05-16T08:12:32.838Z,8.05
2019-05-16T08:15:00.745Z,7.65
2019-05-16T08:17:31.307Z,6.87
2019-05-16T08:20:00.077Z,8.13
2019-05-16T08:22:30.608Z,7.70
2019-05-16T08:25:00.213Z,8.20
2019-05-16T08:27:31.336Z,7.75
2019-05-16T08:30:02.167Z,8.23
2019-05-16T08:32:31.158Z,7.50
2019-05-16T08:35:01.164Z,7.97
2019-05-16T08:37:38.414Z,7.55
2019-05-16T08:40:00.351Z,7.47
2019-05-16T08:42:32.370Z,7.25
2019-05-16T08:45:01.945Z,7.87
2019-05-16T08:47:32.170Z,8.35
2019-05-16T08:50:00.662Z,8.80
2019-05-16T08:52:31.557Z,7.53
2019-05-16T08:55:03.102Z,8.25
2019-05-16T08:57:33.846Z,7.90
2019-05-16T09:00:01.309Z,8.15
2019-05-16T09:02:35.757Z,8.93
2019-05-16T09:05:05.011Z,8.20
2019-05-16T09:07:31.993Z,8.20
2019-05-16T09:10:01.131Z,8.60
2019-05-16T09:12:29.592Z,7.97
2019-05-16T09:14:59.679Z,7.80
2019-05-16T09:17:28.199Z,8.20
2019-05-16T09:19:57.666Z,8.08
2019-05-16T09:22:28.233Z,8.18
2019-05-16T09:25:18.561Z,8.83
2019-05-16T09:27:47.033Z,7.53
2019-05-16T09:30:17.191Z,8.03
2019-05-16T09:32:48.018Z,8.40
2019-05-16T09:35:17.160Z,8.55
2019-05-16T09:37:47.378Z,8.05
2019-05-16T09:40:17.305Z,7.17
2019-05-16T09:42:47.409Z,8.33
2019-05-16T09:45:17.307Z,8.63
2019-05-16T09:47:48.508Z,9.00
2019-05-16T09:50:17.502Z,8.13
2019-05-16T09:52:47.254Z,7.60
2019-05-16T09:55:17.907Z,7.50
2019-05-16T09:57:46.907Z,7.72
2019-05-16T10:00:18.708Z,7.28
2019-05-16T10:02:47.889Z,7.78
2019-05-16T10:05:17.048Z,7.67
2019-05-16T10:07:47.071Z,6.83
2019-05-16T10:10:17.049Z,7.33
2019-05-16T10:12:45.635Z,7.75
2019-05-16T10:15:14.752Z,7.00
2019-05-16T10:17:43.182Z,7.25
2019-05-16T10:20:12.458Z,7.00
2019-05-16T10:22:40.950Z,7.08
2019-05-16T10:25:09.977Z,7.53
2019-05-16T10:27:38.391Z,7.62
2019-05-16T10:30:08.616Z,7.35
2019-05-16T10:32:39.849Z,9.15
2019-05-16T10:35:07.772Z,8.35
2019-05-16T10:37:37.565Z,8.38
2019-05-16T10:40:08.214Z,8.23
2019-05-16T10:42:37.904Z,7.67
2019-05-16T10:45:08.906Z,8.40
2019-05-16T10:47:37.445Z,8.63
2019-05-16T10:50:07.701Z,8.05
2019-05-16T10:52:36.856Z,9.35
2019-05-16T10:55:08.167Z,7.78
2019-05-16T10:57:37.843Z,8.50
2019-05-16T11:00:18.087Z,7.92
2019-05-16T11:02:38.368Z,7.42
2019-05-16T11:05:25.763Z,7.42
2019-05-16T11:07:37.783Z,8.08
2019-05-16T11:10:07.688Z,8.15
2019-05-16T11:12:47.634Z,8.15
2019-05-16T11:15:11.343Z,8.55
2019-05-16T11:17:39.114Z,8.18
2019-05-16T11:20:08.615Z,9.65
2019-05-16T11:22:37.282Z,9.70
2019-05-16T11:25:21.139Z,9.05
2019-05-16T11:27:37.509Z,9.60
2019-05-16T11:30:08.459Z,9.05
2019-05-16T11:32:37.657Z,9.40
2019-05-16T11:35:07.827Z,8.75
2019-05-16T11:37:37.463Z,9.45
2019-05-16T11:40:08.196Z,9.45
2019-05-16T11:42:37.788Z,8.83
2019-05-16T11:45:09.724Z,8.68
2019-05-16T11:47:38.576Z,8.75
2019-05-16T11:50:07.936Z,8.98
2019-05-16T11:52:36.380Z,9.33
2019-05-16T11:55:07.423Z,10.30
2019-05-16T11:57:37.982Z,9.13
2019-05-16T12:00:09.150Z,8.65
2019-05-16T12:02:40.218Z,8.80
2019-05-16T12:05:08.589Z,8.93
2019-05-16T12:07:43.756Z,8.83
2019-05-16T12:10:08.077Z,9.30
2019-05-16T12:12:37.102Z,8.75
2019-05-16T12:15:07.894Z,10.15
2019-05-16T12:17:36.548Z,10.05
2019-05-16T12:20:07.816Z,9.48
2019-05-16T12:22:37.667Z,9.90
2019-05-16T12:25:08.132Z,9.55
2019-05-16T12:27:42.139Z,10.68
2019-05-16T12:30:13.552Z,9.58
2019-05-16T12:32:39.104Z,9.58
2019-05-16T12:35:07.593Z,10.55
2019-05-16T12:37:37.193Z,9.70
2019-05-16T12:40:07.924Z,9.93
2019-05-16T12:42:36.583Z,10.03
2019-05-16T12:45:08.869Z,9.83
2019-05-16T12:47:37.764Z,10.25
2019-05-16T12:50:08.895Z,10.75
2019-05-16T12:52:38.338Z,10.40
2019-05-16T12:55:08.060Z,10.32
2019-05-16T12:57:38.296Z,10.10
2019-05-16T13:00:14.881Z,11.25
2019-05-16T13:02:39.232Z,10.13
2019-05-16T13:05:07.997Z,10.13
2019-05-16T13:07:37.695Z,9.45
2019-05-16T13:10:07.356Z,9.45
2019-05-16T13:12:37.882Z,11.08
2019-05-16T13:15:08.454Z,9.53
2019-05-16T13:17:37.431Z,9.98
2019-05-16T13:20:08.000Z,9.33
2019-05-16T13:22:38.328Z,9.00
2019-05-16T13:25:08.664Z,9.20
2019-05-16T13:27:37.636Z,9.70
2019-05-16T13:30:12.645Z,8.88
2019-05-16T13:32:41.133Z,9.83
2019-05-16T13:35:09.982Z,9.55
2019-05-16T13:37:38.573Z,9.75
2019-05-16T13:40:08.518Z,9.95
2019-05-16T13:42:37.179Z,9.68
2019-05-16T13:45:09.298Z,9.45
2019-05-16T13:47:37.973Z,8.80
2019-05-16T13:50:12.044Z,9.55
2019-05-16T13:52:38.665Z,9.45
2019-05-16T13:55:08.313Z,9.85
2019-05-16T13:57:37.373Z,10.25
2019-05-16T14:00:08.236Z,11.57
2019-05-16T14:02:37.862Z,11.30
2019-05-16T14:05:11.076Z,11.90
2019-05-16T14:07:39.558Z,11.78
2019-05-16T14:10:09.407Z,10.23
2019-05-16T14:12:38.089Z,10.85
2019-05-16T14:15:08.467Z,10.08
2019-05-16T14:17:37.376Z,10.53
2019-05-16T14:20:14.437Z,10.13
2019-05-16T14:22:38.971Z,10.30
2019-05-16T14:25:07.640Z,10.58
2019-05-16T14:27:38.329Z,10.35
2019-05-16T14:30:08.404Z,10.05
2019-05-16T14:32:40.950Z,9.90
2019-05-16T14:35:08.924Z,9.33
2019-05-16T14:37:38.221Z,10.45
2019-05-16T14:40:08.754Z,10.93
2019-05-16T14:42:38.627Z,10.40
2019-05-16T14:45:12.646Z,10.38
2019-05-16T14:47:40.386Z,10.78
2019-05-16T14:50:13.699Z,10.85
2019-05-16T14:52:40.102Z,10.53
2019-05-16T14:55:09.048Z,11.03
2019-05-16T14:57:38.997Z,12.82
2019-05-16T15:00:08.721Z,10.93
2019-05-16T15:02:38.646Z,11.83
2019-05-16T15:05:08.260Z,10.38
2019-05-16T15:07:37.523Z,11.22
2019-05-16T15:10:08.017Z,11.28
2019-05-16T15:12:37.609Z,10.88
2019-05-16T15:15:19.360Z,11.53
2019-05-16T15:17:38.069Z,11.22
2019-05-16T15:20:09.289Z,11.78
2019-05-16T15:22:38.551Z,12.70
2019-05-16T15:25:08.180Z,11.85
2019-05-16T15:27:37.302Z,11.88
2019-05-16T15:30:08.948Z,12.10
2019-05-16T15:32:38.563Z,12.05
2019-05-16T15:35:09.317Z,12.20
2019-05-16T15:37:37.995Z,12.25
2019-05-16T15:40:07.946Z,14.30
2019-05-16T15:42:37.327Z,12.30
2019-05-16T15:45:07.814Z,12.15
2019-05-16T15:47:37.494Z,12.30
2019-05-16T15:50:08.956Z,11.83
2019-05-16T15:52:38.452Z,12.65
2019-05-16T15:55:10.752Z,13.00
2019-05-16T15:57:39.178Z,15.10
2019-05-16T16:00:10.745Z,12.18
2019-05-16T16:02:39.624Z,12.70
2019-05-16T16:05:08.941Z,13.72
2019-05-16T16:07:38.057Z,12.88
2019-05-16T16:10:07.664Z,12.95
2019-05-16T16:12:37.594Z,13.48
2019-05-16T16:15:07.970Z,12.05
2019-05-16T16:17:38.089Z,12.50
2019-05-16T16:20:10.393Z,12.53
2019-05-16T16:22:37.892Z,12.03
2019-05-16T16:25:07.402Z,14.10
2019-05-16T16:27:36.090Z,14.78
2019-05-16T16:30:07.072Z,14.25
2019-05-16T16:32:38.067Z,14.28
2019-05-16T16:35:08.001Z,13.55
2019-05-16T16:37:37.899Z,13.60
2019-05-16T16:40:11.332Z,15.28
2019-05-16T16:42:37.787Z,14.35
2019-05-16T16:45:07.662Z,14.53
2019-05-16T16:47:37.727Z,14.10
2019-05-16T16:50:07.842Z,16.07
2019-05-16T16:52:37.854Z,16.23
2019-05-16T16:55:10.676Z,14.95
2019-05-16T16:57:39.104Z,13.70
2019-05-16T17:00:09.828Z,15.78
2019-05-16T17:02:38.260Z,15.20
2019-05-16T17:05:11.273Z,16.45
2019-05-16T17:07:38.164Z,15.35
2019-05-16T17:10:08.708Z,14.85
2019-05-16T17:12:41.926Z,15.23
2019-05-16T17:15:09.563Z,16.02
2019-05-16T17:17:38.005Z,15.93
2019-05-16T17:20:09.115Z,15.85
2019-05-16T17:22:38.118Z,16.00
2019-05-16T17:25:10.223Z,15.93
2019-05-16T17:27:38.706Z,15.78
2019-05-16T17:30:19.197Z,16.00
2019-05-16T17:32:47.793Z,14.60
2019-05-16T17:35:18.803Z,16.40
2019-05-16T17:37:48.824Z,15.48
2019-05-16T17:40:18.379Z,14.53
2019-05-16T17:42:47.600Z,14.40
2019-05-16T17:45:18.434Z,15.70
2019-05-16T17:47:47.133Z,15.30
2019-05-16T17:50:17.303Z,15.90
2019-05-16T17:52:47.712Z,16.00
2019-05-16T17:55:17.331Z,17.73
2019-05-16T17:57:46.184Z,15.70
2019-05-16T18:00:24.441Z,15.15
2019-05-16T18:02:46.649Z,14.93
2019-05-16T18:05:17.071Z,15.65
2019-05-16T18:07:47.408Z,15.72
2019-05-16T18:10:17.287Z,15.10
2019-05-16T18:12:48.090Z,16.42
2019-05-16T18:15:20.557Z,17.00
2019-05-16T18:17:48.974Z,16.97
2019-05-16T18:20:18.042Z,16.97
2019-05-16T18:22:47.184Z,16.10
2019-05-16T18:25:16.795Z,16.27
2019-05-16T18:27:45.306Z,15.88
2019-05-16T18:30:16.504Z,16.95
2019-05-16T18:32:44.647Z,15.63
2019-05-16T18:35:13.484Z,15.70
2019-05-16T18:37:41.900Z,15.48
2019-05-16T18:40:12.554Z,16.45
2019-05-16T18:42:40.976Z,16.93
2019-05-16T18:45:10.047Z,15.25
2019-05-16T18:47:38.717Z,16.45
2019-05-16T18:50:08.200Z,14.68
2019-05-16T18:52:37.440Z,14.90
2019-05-16T18:55:08.557Z,14.47
2019-05-16T18:57:37.671Z,15.18
2019-05-16T19:00:10.720Z,15.35
2019-05-16T19:02:39.578Z,13.68
2019-05-16T19:05:09.145Z,14.78
2019-05-16T19:07:38.032Z,15.10
2019-05-16T19:10:08.081Z,14.75
2019-05-16T19:12:37.265Z,13.93
2019-05-16T19:15:09.469Z,14.45
2019-05-16T19:17:38.586Z,15.58
2019-05-16T19:20:08.477Z,15.03
2019-05-16T19:22:37.416Z,15.53
2019-05-16T19:25:18.771Z,15.70
2019-05-16T19:27:47.800Z,15.95
2019-05-16T19:30:17.648Z,16.25
2019-05-16T19:32:46.860Z,17.35
2019-05-16T19:35:16.454Z,15.30
2019-05-16T19:37:47.015Z,15.10
2019-05-16T19:40:17.202Z,15.10
2019-05-16T19:42:47.157Z,15.38
2019-05-16T19:45:17.161Z,17.20
2019-05-16T19:47:46.942Z,16.35
2019-05-16T19:50:16.305Z,15.80
2019-05-16T19:52:47.241Z,15.68
2019-05-16T19:55:15.592Z,16.00
2019-05-16T19:57:46.516Z,15.28
2019-05-16T20:00:19.297Z,16.48
2019-05-16T20:02:47.843Z,16.20
2019-05-16T20:05:17.883Z,16.65
2019-05-16T20:07:46.293Z,15.32
2019-05-16T20:10:16.868Z,16.65
2019-05-16T20:12:46.309Z,16.62
2019-05-16T20:15:16.587Z,18.10
2019-05-16T20:17:52.101Z,16.80
2019-05-16T20:20:18.729Z,16.73
2019-05-16T20:22:47.536Z,18.20
2019-05-16T20:25:16.734Z,16.23
2019-05-16T20:27:46.946Z,16.37
2019-05-16T20:30:17.285Z,16.85
2019-05-16T20:32:45.803Z,16.65
2019-05-16T20:35:14.473Z,15.18
2019-05-16T20:37:42.941Z,16.27
2019-05-16T20:40:12.653Z,17.37
2019-05-16T20:42:41.193Z,16.80
2019-05-16T20:45:10.570Z,17.27
2019-05-16T20:47:38.976Z,16.07
2019-05-16T20:50:08.824Z,17.32
2019-05-16T20:52:38.079Z,16.73
2019-05-16T20:55:07.827Z,16.37
2019-05-16T20:57:37.729Z,17.80
2019-05-16T21:00:10.797Z,17.10
2019-05-16T21:02:39.371Z,17.55
2019-05-16T21:05:08.233Z,17.85
2019-05-16T21:07:37.554Z,17.60
2019-05-16T21:10:08.154Z,17.73
2019-05-16T21:12:40.043Z,18.10
2019-05-16T21:15:08.218Z,17.95
2019-05-16T21:17:36.615Z,17.48
2019-05-16T21:20:07.385Z,17.23
2019-05-16T21:22:37.006Z,19.50
2019-05-16T21:25:06.772Z,19.23
2019-05-16T21:27:37.596Z,18.52
2019-05-16T21:30:07.563Z,20.08
2019-05-16T21:32:36.665Z,19.90
2019-05-16T21:35:08.577Z,19.75
2019-05-16T21:37:37.559Z,19.50
2019-05-16T21:40:09.496Z,20.00
2019-05-16T21:42:37.892Z,20.02
2019-05-16T21:45:07.756Z,19.32
2019-05-16T21:47:36.955Z,19.85
2019-05-16T21:50:08.178Z,18.60
2019-05-16T21:52:36.658Z,20.90
2019-05-16T21:55:09.421Z,19.82
2019-05-16T21:57:38.043Z,19.62
2019-05-16T22:00:11.217Z,20.48
2019-05-16T22:02:39.883Z,15.70
2019-05-16T22:05:08.603Z,18.52
2019-05-16T22:07:37.025Z,19.45
2019-05-16T22:10:07.455Z,18.98
2019-05-16T22:12:38.208Z,19.82
2019-05-16T22:15:06.749Z,19.35
2019-05-16T22:17:36.699Z,20.20
2019-05-16T22:20:08.689Z,17.98
2019-05-16T22:22:38.146Z,18.57
2019-05-16T22:25:07.826Z,21.73
2019-05-16T22:27:36.333Z,22.07
2019-05-16T22:30:07.882Z,22.85
2019-05-16T22:32:36.388Z,23.07
2019-05-16T22:35:07.807Z,23.70
2019-05-16T22:37:48.872Z,23.27
2019-05-16T22:40:07.716Z,23.92
2019-05-16T22:42:37.447Z,24.60
2019-05-16T22:45:09.744Z,25.77
2019-05-16T22:47:38.160Z,26.00
2019-05-16T22:50:10.732Z,27.00
2019-05-16T22:52:39.141Z,24.98
2019-05-16T22:55:07.995Z,24.92
2019-05-16T22:57:36.407Z,25.35
2019-05-16T23:00:07.756Z,25.68
2019-05-16T23:02:36.793Z,25.60
2019-05-16T23:05:07.325Z,27.67
2019-05-16T23:07:36.754Z,26.95
2019-05-16T23:10:07.305Z,27.07
2019-05-16T23:12:37.242Z,26.48
2019-05-16T23:15:06.730Z,27.55
2019-05-16T23:17:37.510Z,26.02
2019-05-16T23:20:06.481Z,26.80
2019-05-16T23:22:36.769Z,27.48
2019-05-16T23:25:06.686Z,26.37
2019-05-16T23:27:36.752Z,27.93
2019-05-16T23:30:08.480Z,26.35
2019-05-16T23:32:36.885Z,26.15
2019-05-16T23:35:07.049Z,26.57
2019-05-16T23:37:36.989Z,27.77
2019-05-16T23:40:06.735Z,27.27
2019-05-16T23:42:37.112Z,25.12
2019-05-16T23:45:08.670Z,27.27
2019-05-16T23:47:37.669Z,27.90
2019-05-16T23:50:07.504Z,26.33
2019-05-16T23:52:36.856Z,29.27
2019-05-16T23:55:08.921Z,25.88
2019-05-16T23:57:37.684Z,27.30
